createdAt,value
2017-09-30T00:00:25.869Z,1013.3
2017-09-30T00:01:28.302Z,1013.3
2017-09-30T00:02:30.733Z,1013.3
2017-09-30T00:03:33.162Z,1013.2
2017-09-30T00:04:35.602Z,1013.3
2017-09-30T00:05:38.037Z,1013.3
2017-09-30T00:06:40.471Z,1013.3
2017-09-30T00:07:42.908Z,1013.3
2017-09-30T00:08:45.322Z,1013.4
2017-09-30T00:09:47.755Z,1013.3
2017-09-30T00:10:50.534Z,1013.3
2017-09-30T00:11:52.965Z,1013.3
2017-09-30T00:12:55.407Z,1013.2
2017-09-30T00:13:57.818Z,1013.2
2017-09-30T00:15:00.250Z,1013.2
2017-09-30T00:16:02.693Z,1013.3
2017-09-30T00:17:05.117Z,1013.2
2017-09-30T00:18:07.897Z,1013.2
2017-09-30T00:19:10.330Z,1013.2
2017-09-30T00:20:13.091Z,1013.2
2017-09-30T00:21:15.878Z,1013.2
2017-09-30T00:22:18.644Z,1013.2
2017-09-30T00:23:21.063Z,1013.2
2017-09-30T00:24:23.502Z,1013.2
2017-09-30T00:25:25.940Z,1013.2
2017-09-30T00:26:28.372Z,1013.2
2017-09-30T00:27:31.140Z,1013.3
2017-09-30T00:28:33.566Z,1013.3
2017-09-30T00:29:35.992Z,1013.2
2017-09-30T00:30:38.415Z,1013.2
2017-09-30T00:31:40.845Z,1013.2
2017-09-30T00:32:43.286Z,1013.2
2017-09-30T00:33:46.043Z,1013.2
2017-09-30T00:34:48.486Z,1013.2
2017-09-30T00:35:50.912Z,1013.1
2017-09-30T00:36:53.694Z,1013.2
2017-09-30T00:37:56.128Z,1013.1
2017-09-30T00:38:58.559Z,1013.1
2017-09-30T00:40:00.985Z,1013.1
2017-09-30T00:41:03.419Z,1013.1
2017-09-30T00:42:05.844Z,1013.1
2017-09-30T00:43:08.274Z,1013.1
2017-09-30T00:44:10.701Z,1013.1
2017-09-30T00:45:13.126Z,1013.1
2017-09-30T00:46:15.550Z,1013
2017-09-30T00:47:17.996Z,1013.1
2017-09-30T00:48:20.412Z,1013
2017-09-30T00:49:22.849Z,1013.1
2017-09-30T00:50:25.630Z,1013
2017-09-30T00:51:28.058Z,1013.1
2017-09-30T00:52:30.493Z,1013.1
2017-09-30T00:53:32.930Z,1013.1
2017-09-30T00:54:35.349Z,1013
2017-09-30T00:55:37.788Z,1013
2017-09-30T00:56:40.205Z,1013
2017-09-30T00:57:42.628Z,1013
2017-09-30T00:58:45.078Z,1013
2017-09-30T00:59:47.506Z,1013
2017-09-30T01:00:49.930Z,1013
2017-09-30T01:01:52.362Z,1013
2017-09-30T01:02:54.798Z,1013
2017-09-30T01:03:57.231Z,1012.9
2017-09-30T01:04:59.660Z,1012.9
2017-09-30T01:06:02.077Z,1012.9
2017-09-30T01:07:04.500Z,1013
2017-09-30T01:08:07.633Z,1013
2017-09-30T01:09:10.408Z,1013
2017-09-30T01:10:12.839Z,1013
2017-09-30T01:11:15.267Z,1012.9
2017-09-30T01:12:17.684Z,1013
2017-09-30T01:13:20.122Z,1012.9
2017-09-30T01:14:22.546Z,1013
2017-09-30T01:15:24.968Z,1012.9
2017-09-30T01:16:27.741Z,1012.9
2017-09-30T01:17:30.517Z,1012.9
2017-09-30T01:18:32.954Z,1012.9
2017-09-30T01:19:35.729Z,1012.9
2017-09-30T01:20:38.141Z,1012.9
2017-09-30T01:21:40.571Z,1012.9
2017-09-30T01:22:43.353Z,1012.9
2017-09-30T01:23:45.774Z,1012.8
2017-09-30T01:24:48.205Z,1012.9
2017-09-30T01:25:50.637Z,1012.8
2017-09-30T01:26:53.068Z,1012.8
2017-09-30T01:27:55.832Z,1012.8
2017-09-30T01:28:58.265Z,1012.8
2017-09-30T01:30:00.701Z,1012.8
2017-09-30T01:31:03.144Z,1012.8
2017-09-30T01:32:05.560Z,1012.8
2017-09-30T01:33:08.353Z,1012.8
2017-09-30T01:34:10.761Z,1012.8
2017-09-30T01:35:13.199Z,1012.8
2017-09-30T01:36:15.624Z,1012.8
2017-09-30T01:37:18.055Z,1012.8
2017-09-30T01:38:20.477Z,1012.8
2017-09-30T01:39:22.917Z,1012.8
2017-09-30T01:40:25.341Z,1012.8
2017-09-30T01:41:27.770Z,1012.8
2017-09-30T01:42:30.210Z,1012.8
2017-09-30T01:43:32.635Z,1012.7
2017-09-30T01:44:35.071Z,1012.7
2017-09-30T01:45:37.505Z,1012.7
2017-09-30T01:46:39.935Z,1012.7
2017-09-30T01:47:42.379Z,1012.7
2017-09-30T01:48:45.496Z,1012.7
2017-09-30T01:49:47.931Z,1012.7
2017-09-30T01:50:50.358Z,1012.7
2017-09-30T01:51:52.787Z,1012.6
2017-09-30T01:52:55.206Z,1012.7
2017-09-30T01:53:57.644Z,1012.7
2017-09-30T01:55:00.409Z,1012.6
2017-09-30T01:56:02.824Z,1012.7
2017-09-30T01:57:05.259Z,1012.6
2017-09-30T01:58:07.709Z,1012.6
2017-09-30T01:59:10.115Z,1012.6
2017-09-30T02:00:12.549Z,1012.6
2017-09-30T02:01:14.977Z,1012.6
2017-09-30T02:02:17.407Z,1012.7
2017-09-30T02:03:20.189Z,1012.7
2017-09-30T02:04:22.607Z,1012.7
2017-09-30T02:05:25.035Z,1012.7
2017-09-30T02:06:27.465Z,1012.7
2017-09-30T02:07:30.249Z,1012.7
2017-09-30T02:08:32.672Z,1012.7
2017-09-30T02:09:35.119Z,1012.6
2017-09-30T02:10:37.534Z,1012.7
2017-09-30T02:11:39.969Z,1012.7
2017-09-30T02:12:42.394Z,1012.7
2017-09-30T02:13:44.830Z,1012.7
2017-09-30T02:14:47.260Z,1012.7
2017-09-30T02:15:50.058Z,1012.7
2017-09-30T02:16:52.486Z,1012.7
2017-09-30T02:17:54.918Z,1012.7
2017-09-30T02:18:57.689Z,1012.7
2017-09-30T02:20:00.109Z,1012.6
2017-09-30T02:21:02.534Z,1012.6
2017-09-30T02:22:04.964Z,1012.6
2017-09-30T02:23:07.385Z,1012.6
2017-09-30T02:24:09.821Z,1012.7
2017-09-30T02:25:12.588Z,1012.6
2017-09-30T02:26:15.025Z,1012.6
2017-09-30T02:27:17.452Z,1012.6
2017-09-30T02:28:19.877Z,1012.6
2017-09-30T02:29:22.321Z,1012.6
2017-09-30T02:30:24.749Z,1012.5
2017-09-30T02:31:27.170Z,1012.5
2017-09-30T02:32:29.950Z,1012.5
2017-09-30T02:33:32.370Z,1012.5
2017-09-30T02:34:35.157Z,1012.5
2017-09-30T02:35:37.589Z,1012.5
2017-09-30T02:36:40.015Z,1012.5
2017-09-30T02:37:42.447Z,1012.5
2017-09-30T02:38:45.245Z,1012.5
2017-09-30T02:39:47.662Z,1012.5
2017-09-30T02:40:50.095Z,1012.5
2017-09-30T02:41:52.573Z,1012.5
2017-09-30T02:42:55.005Z,1012.5
2017-09-30T02:43:57.445Z,1012.5
2017-09-30T02:44:59.882Z,1012.5
2017-09-30T02:46:02.308Z,1012.5
2017-09-30T02:47:04.735Z,1012.5
2017-09-30T02:48:07.515Z,1012.5
2017-09-30T02:49:09.939Z,1012.4
2017-09-30T02:50:12.367Z,1012.4
2017-09-30T02:51:14.792Z,1012.4
2017-09-30T02:52:17.216Z,1012.4
2017-09-30T02:53:19.658Z,1012.4
2017-09-30T02:54:22.078Z,1012.4
2017-09-30T02:55:24.856Z,1012.4
2017-09-30T02:56:27.285Z,1012.4
2017-09-30T02:57:29.711Z,1012.3
2017-09-30T02:58:32.150Z,1012.3
2017-09-30T02:59:34.573Z,1012.3
2017-09-30T03:00:37.008Z,1012.3
2017-09-30T03:01:39.440Z,1012.3
2017-09-30T03:02:41.860Z,1012.3
2017-09-30T03:03:44.293Z,1012.2
2017-09-30T03:04:46.720Z,1012.2
2017-09-30T03:05:49.143Z,1012.2
2017-09-30T03:06:51.578Z,1012.2
2017-09-30T03:07:54.002Z,1012.2
2017-09-30T03:08:56.439Z,1012.1
2017-09-30T03:09:58.875Z,1012.1
2017-09-30T03:11:01.651Z,1012.2
2017-09-30T03:12:04.401Z,1012.2
2017-09-30T03:13:06.828Z,1012.1
2017-09-30T03:14:09.603Z,1012.1
2017-09-30T03:15:12.370Z,1012.1
2017-09-30T03:16:14.794Z,1012.1
2017-09-30T03:17:17.219Z,1012.2
2017-09-30T03:18:19.654Z,1012.2
2017-09-30T03:19:22.429Z,1012.2
2017-09-30T03:20:24.864Z,1012.2
2017-09-30T03:21:27.290Z,1012.2
2017-09-30T03:22:29.722Z,1012.2
2017-09-30T03:23:32.159Z,1012.1
2017-09-30T03:24:34.577Z,1012.1
2017-09-30T03:25:37.006Z,1012.1
2017-09-30T03:26:39.447Z,1012.1
2017-09-30T03:27:41.866Z,1012.1
2017-09-30T03:28:44.298Z,1012.1
2017-09-30T03:29:46.725Z,1012.1
2017-09-30T03:30:49.151Z,1012
2017-09-30T03:31:51.586Z,1012
2017-09-30T03:32:54.021Z,1012
2017-09-30T03:33:56.434Z,1012
2017-09-30T03:34:58.870Z,1012
2017-09-30T03:36:01.307Z,1012
2017-09-30T03:37:03.731Z,1012
2017-09-30T03:38:06.165Z,1012
2017-09-30T03:39:08.589Z,1012.1
2017-09-30T03:40:11.024Z,1012
2017-09-30T03:41:13.453Z,1012.1
2017-09-30T03:42:15.900Z,1012
2017-09-30T03:43:18.306Z,1012
2017-09-30T03:44:20.723Z,1012.1
2017-09-30T03:45:23.165Z,1012
2017-09-30T03:46:25.924Z,1012.1
2017-09-30T03:47:28.356Z,1012
2017-09-30T03:48:31.128Z,1012
2017-09-30T03:49:33.563Z,1012.1
2017-09-30T03:50:35.991Z,1012.1
2017-09-30T03:51:38.429Z,1012
2017-09-30T03:52:40.846Z,1012
2017-09-30T03:53:43.278Z,1012
2017-09-30T03:54:45.713Z,1012
2017-09-30T03:55:48.142Z,1012
2017-09-30T03:56:50.566Z,1012
2017-09-30T03:57:53.344Z,1012
2017-09-30T03:58:55.772Z,1012
2017-09-30T03:59:58.193Z,1011.9
2017-09-30T04:01:00.631Z,1011.9
2017-09-30T04:02:03.392Z,1011.9
2017-09-30T04:03:05.820Z,1011.9
2017-09-30T04:04:08.586Z,1011.9
2017-09-30T04:05:11.011Z,1012
2017-09-30T04:06:13.433Z,1011.9
2017-09-30T04:07:15.874Z,1011.9
2017-09-30T04:08:18.286Z,1012
2017-09-30T04:09:20.731Z,1011.9
2017-09-30T04:10:23.150Z,1011.9
2017-09-30T04:11:25.577Z,1011.9
2017-09-30T04:12:28.002Z,1011.9
2017-09-30T04:13:30.426Z,1011.9
2017-09-30T04:14:32.850Z,1012
2017-09-30T04:15:35.283Z,1011.9
2017-09-30T04:16:37.706Z,1012
2017-09-30T04:17:40.145Z,1011.9
2017-09-30T04:18:42.582Z,1011.9
2017-09-30T04:19:45.005Z,1011.8
2017-09-30T04:20:47.427Z,1011.8
2017-09-30T04:21:49.860Z,1011.7
2017-09-30T04:22:52.282Z,1011.8
2017-09-30T04:23:54.712Z,1011.8
2017-09-30T04:24:57.127Z,1011.8
2017-09-30T04:25:59.562Z,1011.8
2017-09-30T04:27:02.343Z,1011.8
2017-09-30T04:28:04.770Z,1011.8
2017-09-30T04:29:07.204Z,1011.8
2017-09-30T04:30:09.639Z,1011.8
2017-09-30T04:31:12.401Z,1011.7
2017-09-30T04:32:14.839Z,1011.7
2017-09-30T04:33:17.252Z,1011.7
2017-09-30T04:34:19.680Z,1011.7
2017-09-30T04:35:22.112Z,1011.7
2017-09-30T04:36:24.534Z,1011.6
2017-09-30T04:37:26.967Z,1011.7
2017-09-30T04:38:29.743Z,1011.7
2017-09-30T04:39:32.165Z,1011.7
2017-09-30T04:40:34.592Z,1011.7
2017-09-30T04:41:37.017Z,1011.7
2017-09-30T04:42:39.429Z,1011.6
2017-09-30T04:43:41.858Z,1011.6
2017-09-30T04:44:44.296Z,1011.6
2017-09-30T04:45:47.059Z,1011.5
2017-09-30T04:46:49.496Z,1011.6
2017-09-30T04:47:51.920Z,1011.5
2017-09-30T04:48:54.348Z,1011.5
2017-09-30T04:49:56.781Z,1011.5
2017-09-30T04:50:59.207Z,1011.5
2017-09-30T04:52:01.631Z,1011.4
2017-09-30T04:53:04.055Z,1011.5
2017-09-30T04:54:06.489Z,1011.5
2017-09-30T04:55:08.922Z,1011.5
2017-09-30T04:56:11.353Z,1011.5
2017-09-30T04:57:13.778Z,1011.5
2017-09-30T04:58:16.199Z,1011.5
2017-09-30T04:59:18.971Z,1011.5
2017-09-30T05:00:21.395Z,1011.6
2017-09-30T05:01:23.822Z,1011.6
2017-09-30T05:02:26.246Z,1011.6
2017-09-30T05:03:28.666Z,1011.6
2017-09-30T05:04:31.098Z,1011.6
2017-09-30T05:05:33.533Z,1011.6
2017-09-30T05:06:35.960Z,1011.7
2017-09-30T05:07:38.397Z,1011.6
2017-09-30T05:08:40.819Z,1011.7
2017-09-30T05:09:43.254Z,1011.7
2017-09-30T05:10:45.686Z,1011.8
2017-09-30T05:11:48.114Z,1011.8
2017-09-30T05:12:50.546Z,1011.8
2017-09-30T05:13:52.979Z,1011.8
2017-09-30T05:14:55.748Z,1011.8
2017-09-30T05:15:58.191Z,1011.7
2017-09-30T05:17:00.621Z,1011.8
2017-09-30T05:18:04.078Z,1011.7
2017-09-30T05:19:06.513Z,1011.7
2017-09-30T05:20:08.932Z,1011.8
2017-09-30T05:21:11.716Z,1011.8
2017-09-30T05:22:14.138Z,1011.8
2017-09-30T05:23:16.585Z,1011.8
2017-09-30T05:24:19.013Z,1011.8
2017-09-30T05:25:21.441Z,1011.8
2017-09-30T05:26:23.873Z,1011.8
2017-09-30T05:27:26.292Z,1011.8
2017-09-30T05:28:28.719Z,1011.8
2017-09-30T05:29:31.151Z,1011.8
2017-09-30T05:30:33.569Z,1011.7
2017-09-30T05:31:35.992Z,1011.7
2017-09-30T05:32:38.455Z,1011.7
2017-09-30T05:33:40.859Z,1011.7
2017-09-30T05:34:43.289Z,1011.7
2017-09-30T05:35:45.718Z,1011.6
2017-09-30T05:36:48.145Z,1011.6
2017-09-30T05:37:50.580Z,1011.6
2017-09-30T05:38:53.012Z,1011.6
2017-09-30T05:39:55.441Z,1011.5
2017-09-30T05:40:58.222Z,1011.5
2017-09-30T05:42:00.661Z,1011.5
2017-09-30T05:43:03.089Z,1011.5
2017-09-30T05:44:05.511Z,1011.5
2017-09-30T05:45:07.938Z,1011.5
2017-09-30T05:46:10.369Z,1011.4
2017-09-30T05:47:12.798Z,1011.4
2017-09-30T05:48:15.230Z,1011.4
2017-09-30T05:49:18.009Z,1011.4
2017-09-30T05:50:20.444Z,1011.4
2017-09-30T05:51:22.876Z,1011.4
2017-09-30T05:52:25.307Z,1011.4
2017-09-30T05:53:27.735Z,1011.4
2017-09-30T05:54:30.162Z,1011.5
2017-09-30T05:55:32.597Z,1011.5
2017-09-30T05:56:35.008Z,1011.5
2017-09-30T05:57:37.780Z,1011.6
2017-09-30T05:58:40.549Z,1011.6
2017-09-30T05:59:42.978Z,1011.7
2017-09-30T06:00:45.414Z,1011.7
2017-09-30T06:01:47.844Z,1011.7
2017-09-30T06:02:50.272Z,1011.8
2017-09-30T06:03:53.071Z,1011.8
2017-09-30T06:04:55.504Z,1011.8
2017-09-30T06:05:57.923Z,1011.9
2017-09-30T06:07:00.355Z,1011.9
2017-09-30T06:08:02.782Z,1011.9
2017-09-30T06:09:05.207Z,1011.9
2017-09-30T06:10:07.637Z,1011.9
2017-09-30T06:11:10.059Z,1011.9
2017-09-30T06:12:12.488Z,1011.8
2017-09-30T06:13:15.255Z,1011.8
2017-09-30T06:14:17.673Z,1011.8
2017-09-30T06:15:20.100Z,1011.8
2017-09-30T06:16:22.536Z,1011.8
2017-09-30T06:17:24.964Z,1011.8
2017-09-30T06:18:27.393Z,1011.8
2017-09-30T06:19:29.822Z,1011.8
2017-09-30T06:20:32.255Z,1011.8
2017-09-30T06:21:34.680Z,1011.8
2017-09-30T06:22:37.120Z,1011.8
2017-09-30T06:23:39.544Z,1011.8
2017-09-30T06:24:41.975Z,1011.8
2017-09-30T06:25:44.405Z,1011.8
2017-09-30T06:26:46.832Z,1011.8
2017-09-30T06:27:49.257Z,1011.7
2017-09-30T06:28:51.696Z,1011.7
2017-09-30T06:29:54.115Z,1011.7
2017-09-30T06:30:56.898Z,1011.7
2017-09-30T06:31:59.326Z,1011.7
2017-09-30T06:33:01.776Z,1011.8
2017-09-30T06:34:04.187Z,1011.7
2017-09-30T06:35:06.630Z,1011.7
2017-09-30T06:36:09.046Z,1011.7
2017-09-30T06:37:11.840Z,1011.8
2017-09-30T06:38:14.254Z,1011.7
2017-09-30T06:39:16.689Z,1011.7
2017-09-30T06:40:19.107Z,1011.7
2017-09-30T06:41:21.543Z,1011.7
2017-09-30T06:42:23.973Z,1011.7
2017-09-30T06:43:26.747Z,1011.7
2017-09-30T06:44:29.171Z,1011.6
2017-09-30T06:45:31.603Z,1011.7
2017-09-30T06:46:34.039Z,1011.6
2017-09-30T06:47:36.480Z,1011.6
2017-09-30T06:48:38.895Z,1011.7
2017-09-30T06:49:41.327Z,1011.6
2017-09-30T06:50:44.100Z,1011.7
2017-09-30T06:51:46.868Z,1011.7
2017-09-30T06:52:49.293Z,1011.8
2017-09-30T06:53:51.723Z,1011.7
2017-09-30T06:54:54.161Z,1011.7
2017-09-30T06:55:56.578Z,1011.7
2017-09-30T06:56:59.006Z,1011.8
2017-09-30T06:58:01.785Z,1011.8
2017-09-30T06:59:04.212Z,1011.7
2017-09-30T07:00:06.645Z,1011.8
2017-09-30T07:01:09.063Z,1011.7
2017-09-30T07:02:11.490Z,1011.7
2017-09-30T07:03:13.995Z,1011.7
2017-09-30T07:04:16.419Z,1011.7
2017-09-30T07:05:19.130Z,1011.7
2017-09-30T07:06:21.565Z,1011.7
2017-09-30T07:07:23.993Z,1011.7
2017-09-30T07:08:26.434Z,1011.7
2017-09-30T07:09:28.917Z,1011.7
2017-09-30T07:10:31.350Z,1011.7
2017-09-30T07:11:33.784Z,1011.7
2017-09-30T07:12:36.714Z,1011.8
2017-09-30T07:13:39.145Z,1011.7
2017-09-30T07:14:41.577Z,1011.8
2017-09-30T07:15:44.354Z,1011.8
2017-09-30T07:16:46.788Z,1011.8
2017-09-30T07:17:49.227Z,1011.8
2017-09-30T07:18:51.664Z,1011.7
2017-09-30T07:19:54.080Z,1011.7
2017-09-30T07:20:56.509Z,1011.7
2017-09-30T07:21:58.958Z,1011.7
2017-09-30T07:23:01.383Z,1011.8
2017-09-30T07:24:03.821Z,1011.7
2017-09-30T07:25:06.256Z,1011.7
2017-09-30T07:26:08.691Z,1011.7
2017-09-30T07:27:11.122Z,1011.7
2017-09-30T07:28:13.560Z,1011.7
2017-09-30T07:29:16.326Z,1011.7
2017-09-30T07:30:19.104Z,1011.7
2017-09-30T07:31:21.544Z,1011.7
2017-09-30T07:32:23.979Z,1011.7
2017-09-30T07:33:26.756Z,1011.7
2017-09-30T07:34:29.191Z,1011.7
2017-09-30T07:36:04.067Z,1011.7
2017-09-30T07:37:06.461Z,1011.6
2017-09-30T07:38:08.842Z,1011.6
2017-09-30T07:39:11.207Z,1011.6
2017-09-30T07:40:13.595Z,1011.6
2017-09-30T07:41:15.969Z,1011.6
2017-09-30T07:42:18.694Z,1011.5
2017-09-30T07:43:21.073Z,1011.6
2017-09-30T07:44:23.449Z,1011.6
2017-09-30T07:45:25.829Z,1011.5
2017-09-30T07:46:28.914Z,1011.5
2017-09-30T07:47:31.295Z,1011.5
2017-09-30T07:48:33.675Z,1011.4
2017-09-30T07:49:36.051Z,1011.5
2017-09-30T07:50:38.430Z,1011.5
2017-09-30T07:51:40.801Z,1011.5
2017-09-30T07:52:43.180Z,1011.5
2017-09-30T07:53:45.554Z,1011.5
2017-09-30T07:54:48.613Z,1011.5
2017-09-30T07:55:50.989Z,1011.5
2017-09-30T07:56:53.371Z,1011.5
2017-09-30T07:57:55.750Z,1011.5
2017-09-30T07:58:58.142Z,1011.5
2017-09-30T08:00:00.546Z,1011.5
2017-09-30T08:01:03.693Z,1011.5
2017-09-30T08:02:06.076Z,1011.4
2017-09-30T08:03:08.808Z,1011.5
2017-09-30T08:04:11.527Z,1011.5
2017-09-30T08:05:13.918Z,1011.5
2017-09-30T08:06:16.298Z,1011.5
2017-09-30T08:07:18.687Z,1011.4
2017-09-30T08:08:21.065Z,1011.4
2017-09-30T08:09:23.447Z,1011.4
2017-09-30T08:10:25.828Z,1011.5
2017-09-30T08:11:28.198Z,1011.4
2017-09-30T08:12:30.603Z,1011.4
2017-09-30T08:13:32.986Z,1011.4
2017-09-30T08:14:35.380Z,1011.4
2017-09-30T08:15:37.784Z,1011.4
2017-09-30T08:16:40.183Z,1011.4
2017-09-30T08:17:42.570Z,1011.4
2017-09-30T08:18:45.313Z,1011.4
2017-09-30T08:19:47.692Z,1011.4
2017-09-30T08:20:50.077Z,1011.4
2017-09-30T08:21:52.462Z,1011.4
2017-09-30T08:22:55.048Z,1011.4
2017-09-30T08:23:57.425Z,1011.3
2017-09-30T08:25:00.535Z,1011.4
2017-09-30T08:26:03.032Z,1011.3
2017-09-30T08:27:05.810Z,1011.4
2017-09-30T08:28:08.207Z,1011.3
2017-09-30T08:29:10.590Z,1011.4
2017-09-30T08:30:12.987Z,1011.3
2017-09-30T08:31:15.374Z,1011.3
2017-09-30T08:32:18.016Z,1011.3
2017-09-30T08:33:20.398Z,1011.3
2017-09-30T08:34:22.804Z,1011.3
2017-09-30T08:35:25.316Z,1011.3
2017-09-30T08:36:29.283Z,1011.3
2017-09-30T08:37:34.830Z,1011.3
2017-09-30T08:38:40.268Z,1011.2
2017-09-30T08:39:47.288Z,1011.2
2017-09-30T08:40:52.805Z,1011.2
2017-09-30T08:41:57.100Z,1011.2
2017-09-30T08:43:00.731Z,1011.1
2017-09-30T08:44:05.584Z,1011.1
2017-09-30T08:45:11.302Z,1011.2
2017-09-30T08:46:16.707Z,1011.2
2017-09-30T08:47:21.266Z,1011.2
2017-09-30T08:48:26.525Z,1011.2
2017-09-30T08:49:30.763Z,1011.2
2017-09-30T08:50:36.086Z,1011.1
2017-09-30T08:51:40.390Z,1011.2
2017-09-30T08:52:45.210Z,1011.1
2017-09-30T08:53:48.814Z,1011.1
2017-09-30T08:54:54.166Z,1011.1
2017-09-30T08:55:58.214Z,1011.1
2017-09-30T08:57:01.642Z,1011.2
2017-09-30T08:58:04.401Z,1011.1
2017-09-30T08:59:07.960Z,1011.1
2017-09-30T09:00:10.587Z,1011.1
2017-09-30T09:01:14.304Z,1011.1
2017-09-30T09:02:18.482Z,1011.1
2017-09-30T09:03:23.390Z,1011
2017-09-30T09:04:26.696Z,1011
2017-09-30T09:05:29.361Z,1011
2017-09-30T09:06:32.511Z,1011
2017-09-30T09:07:40.769Z,1011
2017-09-30T09:08:45.503Z,1011
2017-09-30T09:09:50.424Z,1010.9
2017-09-30T09:10:55.497Z,1010.9
2017-09-30T09:12:00.682Z,1011
2017-09-30T09:13:05.376Z,1011
2017-09-30T09:14:09.381Z,1011
2017-09-30T09:15:13.902Z,1010.9
2017-09-30T09:16:20.231Z,1010.9
2017-09-30T09:17:25.633Z,1010.9
2017-09-30T09:18:30.302Z,1010.9
2017-09-30T09:19:35.017Z,1010.9
2017-09-30T09:20:39.409Z,1010.9
2017-09-30T09:21:43.974Z,1011
2017-09-30T09:22:49.886Z,1010.8
2017-09-30T09:23:53.973Z,1010.8
2017-09-30T09:24:57.481Z,1010.8
2017-09-30T09:26:02.078Z,1010.8
2017-09-30T09:27:09.495Z,1010.8
2017-09-30T09:28:13.698Z,1010.8
2017-09-30T09:29:18.937Z,1010.7
2017-09-30T09:30:23.036Z,1010.7
2017-09-30T09:31:25.424Z,1010.7
2017-09-30T09:32:27.808Z,1010.6
2017-09-30T09:33:30.211Z,1010.6
2017-09-30T09:34:32.596Z,1010.5
2017-09-30T09:35:34.993Z,1010.6
2017-09-30T09:36:37.386Z,1010.5
2017-09-30T09:37:39.764Z,1010.6
2017-09-30T09:38:42.167Z,1010.6
2017-09-30T09:39:44.557Z,1010.5
2017-09-30T09:40:46.943Z,1010.5
2017-09-30T09:41:49.340Z,1010.5
2017-09-30T09:42:51.730Z,1010.5
2017-09-30T09:43:54.111Z,1010.5
2017-09-30T09:44:56.857Z,1010.5
2017-09-30T09:45:59.245Z,1010.5
2017-09-30T09:47:01.624Z,1010.5
2017-09-30T09:48:04.018Z,1010.4
2017-09-30T09:49:06.408Z,1010.4
2017-09-30T09:50:08.799Z,1010.3
2017-09-30T09:51:11.186Z,1010.3
2017-09-30T09:52:13.580Z,1010.4
2017-09-30T09:53:15.982Z,1010.3
2017-09-30T09:54:18.713Z,1010.3
2017-09-30T09:55:21.449Z,1010.3
2017-09-30T09:56:24.169Z,1010.3
2017-09-30T09:57:26.550Z,1010.3
2017-09-30T09:58:28.943Z,1010.3
2017-09-30T09:59:31.332Z,1010.3
2017-09-30T10:00:33.712Z,1010.3
2017-09-30T10:01:36.095Z,1010.3
2017-09-30T10:02:38.830Z,1010.4
2017-09-30T10:03:41.549Z,1010.4
2017-09-30T10:04:43.939Z,1010.4
2017-09-30T10:05:46.331Z,1010.4
2017-09-30T10:06:48.722Z,1010.4
2017-09-30T10:07:51.119Z,1010.4
2017-09-30T10:08:53.502Z,1010.4
2017-09-30T10:09:56.922Z,1010.3
2017-09-30T10:10:59.321Z,1010.3
2017-09-30T10:12:01.702Z,1010.3
2017-09-30T10:13:04.087Z,1010.3
2017-09-30T10:14:06.477Z,1010.3
2017-09-30T10:15:08.861Z,1010.3
2017-09-30T10:16:11.248Z,1010.3
2017-09-30T10:17:13.979Z,1010.3
2017-09-30T10:18:16.352Z,1010.2
2017-09-30T10:19:18.738Z,1010.2
2017-09-30T10:20:21.135Z,1010.2
2017-09-30T10:21:23.515Z,1010.2
2017-09-30T10:22:25.909Z,1010.2
2017-09-30T10:23:28.289Z,1010.2
2017-09-30T10:24:30.687Z,1010.2
2017-09-30T10:25:33.061Z,1010.2
2017-09-30T10:26:35.451Z,1010.2
2017-09-30T10:27:37.837Z,1010.2
2017-09-30T10:28:40.226Z,1010.2
2017-09-30T10:29:42.612Z,1010.2
2017-09-30T10:30:44.998Z,1010.2
2017-09-30T10:31:47.384Z,1010.2
2017-09-30T10:32:49.784Z,1010.2
2017-09-30T10:33:52.176Z,1010.2
2017-09-30T10:34:54.560Z,1010.2
2017-09-30T10:35:56.955Z,1010.1
2017-09-30T10:36:59.338Z,1010.2
2017-09-30T10:38:01.725Z,1010.2
2017-09-30T10:39:04.120Z,1010.2
2017-09-30T10:40:06.503Z,1010.1
2017-09-30T10:41:08.885Z,1010.1
2017-09-30T10:42:11.280Z,1010.2
2017-09-30T10:43:13.655Z,1010.1
2017-09-30T10:44:16.063Z,1010.1
2017-09-30T10:45:18.449Z,1010.1
2017-09-30T10:46:21.180Z,1010
2017-09-30T10:47:23.568Z,1010
2017-09-30T10:48:25.954Z,1010
2017-09-30T10:49:28.342Z,1010.1
2017-09-30T10:50:30.725Z,1010
2017-09-30T10:51:33.117Z,1009.9
2017-09-30T10:52:35.504Z,1009.9
2017-09-30T10:53:37.894Z,1009.9
2017-09-30T10:54:40.282Z,1009.8
2017-09-30T10:55:42.674Z,1009.9
2017-09-30T10:56:45.053Z,1009.8
2017-09-30T10:57:47.458Z,1009.9
2017-09-30T10:58:49.831Z,1009.9
2017-09-30T10:59:52.218Z,1010
2017-09-30T11:00:54.607Z,1009.8
2017-09-30T11:01:57.329Z,1009.9
2017-09-30T11:02:59.722Z,1009.9
2017-09-30T11:04:02.473Z,1009.9
2017-09-30T11:05:04.860Z,1009.9
2017-09-30T11:06:07.249Z,1009.8
2017-09-30T11:07:09.644Z,1009.8
2017-09-30T11:08:12.015Z,1009.8
2017-09-30T11:09:14.411Z,1009.9
2017-09-30T11:10:16.797Z,1009.8
2017-09-30T11:11:19.186Z,1009.8
2017-09-30T11:12:21.575Z,1009.8
2017-09-30T11:13:23.957Z,1009.8
2017-09-30T11:14:26.347Z,1009.8
2017-09-30T11:15:28.735Z,1009.8
2017-09-30T11:16:31.107Z,1009.8
2017-09-30T11:17:33.494Z,1009.8
2017-09-30T11:18:35.880Z,1009.7
2017-09-30T11:19:38.278Z,1009.8
2017-09-30T11:20:40.665Z,1009.7
2017-09-30T11:21:43.059Z,1009.7
2017-09-30T11:22:45.454Z,1009.7
2017-09-30T11:23:47.854Z,1009.7
2017-09-30T11:24:50.240Z,1009.7
2017-09-30T11:25:52.627Z,1009.7
2017-09-30T11:26:55.016Z,1009.7
2017-09-30T11:27:57.403Z,1009.6
2017-09-30T11:28:59.790Z,1009.7
2017-09-30T11:30:02.515Z,1009.7
2017-09-30T11:31:04.899Z,1009.7
2017-09-30T11:32:07.298Z,1009.7
2017-09-30T11:33:09.684Z,1009.7
2017-09-30T11:34:12.747Z,1009.7
2017-09-30T11:35:15.150Z,1009.6
2017-09-30T11:36:17.538Z,1009.7
2017-09-30T11:37:19.924Z,1009.7
2017-09-30T11:38:22.314Z,1009.6
2017-09-30T11:39:25.040Z,1009.6
2017-09-30T11:40:27.429Z,1009.6
2017-09-30T11:41:29.820Z,1009.6
